sensor_id;sensor_type;location;lat;lon;timestamp;P1;durP1;ratioP1;P2;durP2;ratioP2
7162;SDS011;3623;47.098;15.446;2023-05-07T00:01:42;10.82;;;9.93;;
7162;SDS011;3623;47.098;15.446;2023-05-07T00:04:10;9.68;;;8.88;;
7162;SDS011;3623;47.098;15.446;2023-05-07T00:06:38;9.60;;;8.70;;
7162;SDS011;3623;47.098;15.446;2023-05-07T00:09:06;6.60;;;6.00;;
7162;SDS011;3623;47.098;15.446;2023-05-07T00:11:33;6.90;;;6.30;;
7162;SDS011;3623;47.098;15.446;2023-05-07T00:14:00;6.13;;;5.63;;
7162;SDS011;3623;47.098;15.446;2023-05-07T00:16:27;4.80;;;4.30;;
7162;SDS011;3623;47.098;15.446;2023-05-07T00:18:55;7.85;;;5.38;;
7162;SDS011;3623;47.098;15.446;2023-05-07T00:21:22;5.30;;;4.80;;
7162;SDS011;3623;47.098;15.446;2023-05-07T00:23:53;2.70;;;2.60;;
7162;SDS011;3623;47.098;15.446;2023-05-07T00:26:20;4.97;;;4.60;;
7162;SDS011;3623;47.098;15.446;2023-05-07T00:28:47;6.32;;;5.75;;
7162;SDS011;3623;47.098;15.446;2023-05-07T00:31:14;9.75;;;8.32;;
7162;SDS011;3623;47.098;15.446;2023-05-07T00:33:41;8.60;;;7.78;;
7162;SDS011;3623;47.098;15.446;2023-05-07T00:36:08;9.43;;;8.55;;
7162;SDS011;3623;47.098;15.446;2023-05-07T00:38:35;10.50;;;9.50;;
7162;SDS011;3623;47.098;15.446;2023-05-07T00:41:04;11.05;;;9.93;;
7162;SDS011;3623;47.098;15.446;2023-05-07T00:43:31;10.30;;;9.15;;
7162;SDS011;3623;47.098;15.446;2023-05-07T00:45:58;10.50;;;9.60;;
7162;SDS011;3623;47.098;15.446;2023-05-07T00:48:25;13.38;;;11.98;;
7162;SDS011;3623;47.098;15.446;2023-05-07T00:50:53;10.75;;;9.85;;
7162;SDS011;3623;47.098;15.446;2023-05-07T00:53:20;12.43;;;11.32;;
7162;SDS011;3623;47.098;15.446;2023-05-07T00:55:48;13.80;;;12.45;;
7162;SDS011;3623;47.098;15.446;2023-05-07T00:58:16;11.98;;;10.80;;
7162;SDS011;3623;47.098;15.446;2023-05-07T01:00:43;9.75;;;8.80;;
7162;SDS011;3623;47.098;15.446;2023-05-07T01:03:10;10.95;;;9.80;;
7162;SDS011;3623;47.098;15.446;2023-05-07T01:05:37;9.45;;;8.65;;
7162;SDS011;3623;47.098;15.446;2023-05-07T01:08:05;7.55;;;6.95;;
7162;SDS011;3623;47.098;15.446;2023-05-07T01:10:32;7.78;;;7.10;;
7162;SDS011;3623;47.098;15.446;2023-05-07T01:13:00;8.75;;;7.88;;
7162;SDS011;3623;47.098;15.446;2023-05-07T01:15:29;8.45;;;7.80;;
7162;SDS011;3623;47.098;15.446;2023-05-07T01:17:56;9.43;;;8.57;;
7162;SDS011;3623;47.098;15.446;2023-05-07T01:20:23;8.85;;;8.05;;
7162;SDS011;3623;47.098;15.446;2023-05-07T01:22:52;9.68;;;8.45;;
7162;SDS011;3623;47.098;15.446;2023-05-07T01:25:20;9.23;;;8.50;;
7162;SDS011;3623;47.098;15.446;2023-05-07T01:27:48;10.27;;;9.38;;
7162;SDS011;3623;47.098;15.446;2023-05-07T01:30:15;10.20;;;9.20;;
7162;SDS011;3623;47.098;15.446;2023-05-07T01:32:45;10.68;;;9.77;;
7162;SDS011;3623;47.098;15.446;2023-05-07T01:35:18;9.77;;;8.90;;
7162;SDS011;3623;47.098;15.446;2023-05-07T01:37:47;10.50;;;9.50;;
7162;SDS011;3623;47.098;15.446;2023-05-07T01:40:17;15.30;;;9.93;;
7162;SDS011;3623;47.098;15.446;2023-05-07T01:42:44;10.55;;;9.65;;
7162;SDS011;3623;47.098;15.446;2023-05-07T01:45:13;11.48;;;10.52;;
7162;SDS011;3623;47.098;15.446;2023-05-07T01:47:40;10.82;;;9.95;;
7162;SDS011;3623;47.098;15.446;2023-05-07T01:50:09;11.10;;;10.05;;
7162;SDS011;3623;47.098;15.446;2023-05-07T01:52:36;9.70;;;8.88;;
7162;SDS011;3623;47.098;15.446;2023-05-07T01:55:05;10.18;;;9.27;;
7162;SDS011;3623;47.098;15.446;2023-05-07T01:57:34;13.30;;;9.98;;
7162;SDS011;3623;47.098;15.446;2023-05-07T02:00:01;13.68;;;9.95;;
7162;SDS011;3623;47.098;15.446;2023-05-07T02:02:31;10.40;;;9.25;;
7162;SDS011;3623;47.098;15.446;2023-05-07T02:04:58;13.13;;;11.77;;
7162;SDS011;3623;47.098;15.446;2023-05-07T02:07:26;10.25;;;9.30;;
7162;SDS011;3623;47.098;15.446;2023-05-07T02:09:53;10.77;;;9.95;;
7162;SDS011;3623;47.098;15.446;2023-05-07T02:12:21;15.15;;;10.63;;
7162;SDS011;3623;47.098;15.446;2023-05-07T02:14:49;12.25;;;11.15;;
7162;SDS011;3623;47.098;15.446;2023-05-07T02:17:16;10.98;;;9.90;;
7162;SDS011;3623;47.098;15.446;2023-05-07T02:19:44;11.02;;;9.55;;
7162;SDS011;3623;47.098;15.446;2023-05-07T02:22:11;12.07;;;10.98;;
7162;SDS011;3623;47.098;15.446;2023-05-07T02:24:38;10.15;;;9.23;;
7162;SDS011;3623;47.098;15.446;2023-05-07T02:27:05;12.35;;;9.80;;
7162;SDS011;3623;47.098;15.446;2023-05-07T02:29:32;12.07;;;10.77;;
7162;SDS011;3623;47.098;15.446;2023-05-07T02:32:00;11.00;;;9.90;;
7162;SDS011;3623;47.098;15.446;2023-05-07T02:34:27;11.07;;;10.18;;
7162;SDS011;3623;47.098;15.446;2023-05-07T02:36:54;12.60;;;10.68;;
7162;SDS011;3623;47.098;15.446;2023-05-07T02:39:21;10.18;;;9.18;;
7162;SDS011;3623;47.098;15.446;2023-05-07T02:41:48;10.13;;;9.20;;
7162;SDS011;3623;47.098;15.446;2023-05-07T02:44:16;17.92;;;10.57;;
7162;SDS011;3623;47.098;15.446;2023-05-07T02:46:43;9.88;;;9.07;;
7162;SDS011;3623;47.098;15.446;2023-05-07T02:49:11;8.73;;;8.00;;
7162;SDS011;3623;47.098;15.446;2023-05-07T02:51:38;10.75;;;9.88;;
7162;SDS011;3623;47.098;15.446;2023-05-07T02:54:05;10.57;;;9.68;;
7162;SDS011;3623;47.098;15.446;2023-05-07T02:56:32;10.68;;;9.57;;
7162;SDS011;3623;47.098;15.446;2023-05-07T02:58:59;11.23;;;9.65;;
7162;SDS011;3623;47.098;15.446;2023-05-07T03:01:26;9.60;;;8.80;;
7162;SDS011;3623;47.098;15.446;2023-05-07T03:03:53;12.00;;;9.32;;
7162;SDS011;3623;47.098;15.446;2023-05-07T03:06:22;8.68;;;7.88;;
7162;SDS011;3623;47.098;15.446;2023-05-07T03:08:49;9.25;;;8.35;;
7162;SDS011;3623;47.098;15.446;2023-05-07T03:11:16;9.18;;;8.23;;
7162;SDS011;3623;47.098;15.446;2023-05-07T03:13:44;10.88;;;9.80;;
7162;SDS011;3623;47.098;15.446;2023-05-07T03:16:11;9.57;;;8.77;;
7162;SDS011;3623;47.098;15.446;2023-05-07T03:18:38;9.10;;;8.23;;
7162;SDS011;3623;47.098;15.446;2023-05-07T03:21:05;9.95;;;9.05;;
7162;SDS011;3623;47.098;15.446;2023-05-07T03:23:33;10.57;;;9.57;;
7162;SDS011;3623;47.098;15.446;2023-05-07T03:26:00;10.43;;;9.38;;
7162;SDS011;3623;47.098;15.446;2023-05-07T03:28:28;10.35;;;9.20;;
7162;SDS011;3623;47.098;15.446;2023-05-07T03:30:55;11.05;;;10.00;;
7162;SDS011;3623;47.098;15.446;2023-05-07T03:33:22;10.95;;;9.85;;
7162;SDS011;3623;47.098;15.446;2023-05-07T03:35:49;9.52;;;8.73;;
7162;SDS011;3623;47.098;15.446;2023-05-07T03:38:16;11.02;;;9.95;;
7162;SDS011;3623;47.098;15.446;2023-05-07T03:40:45;10.68;;;9.68;;
7162;SDS011;3623;47.098;15.446;2023-05-07T03:43:12;10.45;;;9.55;;
7162;SDS011;3623;47.098;15.446;2023-05-07T03:45:39;10.95;;;9.95;;
7162;SDS011;3623;47.098;15.446;2023-05-07T03:48:06;11.10;;;10.02;;
7162;SDS011;3623;47.098;15.446;2023-05-07T03:50:33;9.73;;;8.85;;
7162;SDS011;3623;47.098;15.446;2023-05-07T03:53:00;11.07;;;10.07;;
7162;SDS011;3623;47.098;15.446;2023-05-07T03:55:27;10.63;;;9.73;;
7162;SDS011;3623;47.098;15.446;2023-05-07T03:57:56;9.88;;;8.98;;
7162;SDS011;3623;47.098;15.446;2023-05-07T04:00:23;11.13;;;10.15;;
7162;SDS011;3623;47.098;15.446;2023-05-07T04:02:50;10.73;;;9.63;;
7162;SDS011;3623;47.098;15.446;2023-05-07T04:05:17;9.75;;;8.95;;
7162;SDS011;3623;47.098;15.446;2023-05-07T04:07:44;10.30;;;9.25;;
7162;SDS011;3623;47.098;15.446;2023-05-07T04:10:12;11.30;;;10.13;;
7162;SDS011;3623;47.098;15.446;2023-05-07T04:12:39;10.70;;;9.60;;
7162;SDS011;3623;47.098;15.446;2023-05-07T04:15:08;11.60;;;10.30;;
7162;SDS011;3623;47.098;15.446;2023-05-07T04:17:35;10.70;;;9.80;;
7162;SDS011;3623;47.098;15.446;2023-05-07T04:20:03;10.48;;;7.97;;
7162;SDS011;3623;47.098;15.446;2023-05-07T04:22:32;10.07;;;9.18;;
7162;SDS011;3623;47.098;15.446;2023-05-07T04:24:59;9.63;;;8.70;;
7162;SDS011;3623;47.098;15.446;2023-05-07T04:27:27;8.80;;;8.20;;
7162;SDS011;3623;47.098;15.446;2023-05-07T04:29:54;10.32;;;9.30;;
7162;SDS011;3623;47.098;15.446;2023-05-07T04:32:23;9.00;;;7.90;;
7162;SDS011;3623;47.098;15.446;2023-05-07T04:34:51;9.23;;;8.38;;
7162;SDS011;3623;47.098;15.446;2023-05-07T04:37:18;7.53;;;6.93;;
7162;SDS011;3623;47.098;15.446;2023-05-07T04:39:45;8.93;;;8.20;;
7162;SDS011;3623;47.098;15.446;2023-05-07T04:42:14;8.98;;;8.18;;
7162;SDS011;3623;47.098;15.446;2023-05-07T04:44:41;8.80;;;7.93;;
7162;SDS011;3623;47.098;15.446;2023-05-07T04:47:08;10.25;;;7.55;;
7162;SDS011;3623;47.098;15.446;2023-05-07T04:49:36;7.82;;;7.13;;
7162;SDS011;3623;47.098;15.446;2023-05-07T04:52:04;8.75;;;7.85;;
7162;SDS011;3623;47.098;15.446;2023-05-07T04:54:31;8.85;;;8.05;;
7162;SDS011;3623;47.098;15.446;2023-05-07T04:56:58;11.30;;;7.65;;
7162;SDS011;3623;47.098;15.446;2023-05-07T04:59:25;10.35;;;7.40;;
7162;SDS011;3623;47.098;15.446;2023-05-07T05:01:52;6.90;;;6.40;;
7162;SDS011;3623;47.098;15.446;2023-05-07T05:04:19;8.82;;;6.53;;
7162;SDS011;3623;47.098;15.446;2023-05-07T05:06:48;10.23;;;6.38;;
7162;SDS011;3623;47.098;15.446;2023-05-07T05:09:15;7.30;;;6.70;;
7162;SDS011;3623;47.098;15.446;2023-05-07T05:11:42;6.55;;;5.90;;
7162;SDS011;3623;47.098;15.446;2023-05-07T05:14:09;8.27;;;6.10;;
7162;SDS011;3623;47.098;15.446;2023-05-07T05:16:36;7.25;;;6.65;;
7162;SDS011;3623;47.098;15.446;2023-05-07T05:19:03;5.80;;;5.40;;
7162;SDS011;3623;47.098;15.446;2023-05-07T05:21:30;7.40;;;6.72;;
7162;SDS011;3623;47.098;15.446;2023-05-07T05:23:59;6.07;;;5.63;;
7162;SDS011;3623;47.098;15.446;2023-05-07T05:26:26;7.18;;;6.57;;
7162;SDS011;3623;47.098;15.446;2023-05-07T05:28:53;6.15;;;5.55;;
7162;SDS011;3623;47.098;15.446;2023-05-07T05:31:20;5.90;;;5.55;;
7162;SDS011;3623;47.098;15.446;2023-05-07T05:33:47;6.95;;;6.25;;
7162;SDS011;3623;47.098;15.446;2023-05-07T05:36:14;9.15;;;6.28;;
7162;SDS011;3623;47.098;15.446;2023-05-07T05:38:41;7.22;;;5.90;;
7162;SDS011;3623;47.098;15.446;2023-05-07T05:41:10;7.35;;;6.72;;
7162;SDS011;3623;47.098;15.446;2023-05-07T05:43:37;6.50;;;5.53;;
7162;SDS011;3623;47.098;15.446;2023-05-07T05:46:05;6.17;;;5.57;;
7162;SDS011;3623;47.098;15.446;2023-05-07T05:48:33;6.37;;;5.87;;
7162;SDS011;3623;47.098;15.446;2023-05-07T05:51:00;7.03;;;6.33;;
7162;SDS011;3623;47.098;15.446;2023-05-07T05:53:27;6.50;;;5.90;;
7162;SDS011;3623;47.098;15.446;2023-05-07T05:55:54;6.00;;;5.60;;
7162;SDS011;3623;47.098;15.446;2023-05-07T05:58:23;6.20;;;5.13;;
7162;SDS011;3623;47.098;15.446;2023-05-07T06:00:50;6.50;;;5.80;;
7162;SDS011;3623;47.098;15.446;2023-05-07T06:03:18;5.77;;;5.43;;
7162;SDS011;3623;47.098;15.446;2023-05-07T06:05:45;5.87;;;5.30;;
7162;SDS011;3623;47.098;15.446;2023-05-07T06:08:12;5.33;;;4.93;;
7162;SDS011;3623;47.098;15.446;2023-05-07T06:10:40;5.90;;;5.40;;
7162;SDS011;3623;47.098;15.446;2023-05-07T06:13:08;5.33;;;4.83;;
7162;SDS011;3623;47.098;15.446;2023-05-07T06:15:37;6.03;;;5.63;;
7162;SDS011;3623;47.098;15.446;2023-05-07T06:18:04;6.00;;;5.60;;
7162;SDS011;3623;47.098;15.446;2023-05-07T06:20:31;5.23;;;4.83;;
7162;SDS011;3623;47.098;15.446;2023-05-07T06:22:58;5.97;;;5.57;;
7162;SDS011;3623;47.098;15.446;2023-05-07T06:25:25;6.33;;;5.50;;
7162;SDS011;3623;47.098;15.446;2023-05-07T06:27:52;5.93;;;5.53;;
7162;SDS011;3623;47.098;15.446;2023-05-07T06:30:19;5.70;;;5.37;;
7162;SDS011;3623;47.098;15.446;2023-05-07T06:32:48;6.30;;;5.87;;
7162;SDS011;3623;47.098;15.446;2023-05-07T06:35:15;5.57;;;5.07;;
7162;SDS011;3623;47.098;15.446;2023-05-07T06:37:42;6.13;;;5.63;;
7162;SDS011;3623;47.098;15.446;2023-05-07T06:40:09;5.27;;;4.87;;
7162;SDS011;3623;47.098;15.446;2023-05-07T06:42:37;4.43;;;4.00;;
7162;SDS011;3623;47.098;15.446;2023-05-07T06:45:04;4.37;;;4.03;;
7162;SDS011;3623;47.098;15.446;2023-05-07T06:47:32;4.33;;;4.03;;
7162;SDS011;3623;47.098;15.446;2023-05-07T06:50:01;4.63;;;4.33;;
7162;SDS011;3623;47.098;15.446;2023-05-07T06:52:28;4.37;;;4.00;;
7162;SDS011;3623;47.098;15.446;2023-05-07T06:54:55;4.80;;;4.50;;
7162;SDS011;3623;47.098;15.446;2023-05-07T06:57:22;7.83;;;4.50;;
7162;SDS011;3623;47.098;15.446;2023-05-07T06:59:50;5.97;;;4.90;;
7162;SDS011;3623;47.098;15.446;2023-05-07T07:02:17;4.50;;;4.20;;
7162;SDS011;3623;47.098;15.446;2023-05-07T07:04:44;4.27;;;3.97;;
7162;SDS011;3623;47.098;15.446;2023-05-07T07:07:12;4.60;;;4.20;;
7162;SDS011;3623;47.098;15.446;2023-05-07T07:09:39;3.80;;;3.60;;
7162;SDS011;3623;47.098;15.446;2023-05-07T07:12:06;8.13;;;3.80;;
7162;SDS011;3623;47.098;15.446;2023-05-07T07:14:33;3.97;;;3.77;;
7162;SDS011;3623;47.098;15.446;2023-05-07T07:17:01;4.87;;;4.47;;
7162;SDS011;3623;47.098;15.446;2023-05-07T07:19:28;3.83;;;3.53;;
7162;SDS011;3623;47.098;15.446;2023-05-07T07:21:55;5.40;;;4.83;;
7162;SDS011;3623;47.098;15.446;2023-05-07T07:24:23;4.10;;;3.90;;
7162;SDS011;3623;47.098;15.446;2023-05-07T07:26:50;5.00;;;3.80;;
7162;SDS011;3623;47.098;15.446;2023-05-07T07:29:17;4.40;;;4.07;;
7162;SDS011;3623;47.098;15.446;2023-05-07T07:31:45;4.50;;;4.20;;
7162;SDS011;3623;47.098;15.446;2023-05-07T07:34:12;4.90;;;4.57;;
7162;SDS011;3623;47.098;15.446;2023-05-07T07:36:39;4.57;;;4.27;;
7162;SDS011;3623;47.098;15.446;2023-05-07T07:39:06;4.57;;;4.20;;
7162;SDS011;3623;47.098;15.446;2023-05-07T07:41:34;4.53;;;4.23;;
7162;SDS011;3623;47.098;15.446;2023-05-07T07:44:02;5.70;;;5.20;;
7162;SDS011;3623;47.098;15.446;2023-05-07T07:46:32;6.73;;;6.13;;
7162;SDS011;3623;47.098;15.446;2023-05-07T07:48:59;6.10;;;5.70;;
7162;SDS011;3623;47.098;15.446;2023-05-07T07:51:26;5.83;;;5.33;;
7162;SDS011;3623;47.098;15.446;2023-05-07T07:53:53;5.43;;;5.03;;
7162;SDS011;3623;47.098;15.446;2023-05-07T07:56:22;6.03;;;5.53;;
7162;SDS011;3623;47.098;15.446;2023-05-07T07:58:51;10.63;;;6.27;;
7162;SDS011;3623;47.098;15.446;2023-05-07T08:01:18;6.87;;;6.27;;
7162;SDS011;3623;47.098;15.446;2023-05-07T08:03:45;6.90;;;6.30;;
7162;SDS011;3623;47.098;15.446;2023-05-07T08:06:12;6.00;;;5.50;;
7162;SDS011;3623;47.098;15.446;2023-05-07T08:08:39;7.53;;;5.40;;
7162;SDS011;3623;47.098;15.446;2023-05-07T08:11:07;6.03;;;5.43;;
7162;SDS011;3623;47.098;15.446;2023-05-07T08:13:34;6.43;;;5.97;;
7162;SDS011;3623;47.098;15.446;2023-05-07T08:16:02;6.67;;;6.10;;
7162;SDS011;3623;47.098;15.446;2023-05-07T08:18:30;6.00;;;5.40;;
7162;SDS011;3623;47.098;15.446;2023-05-07T08:20:57;7.10;;;6.60;;
7162;SDS011;3623;47.098;15.446;2023-05-07T08:23:24;6.40;;;5.90;;
7162;SDS011;3623;47.098;15.446;2023-05-07T08:25:51;7.03;;;6.27;;
7162;SDS011;3623;47.098;15.446;2023-05-07T08:28:19;5.93;;;5.53;;
7162;SDS011;3623;47.098;15.446;2023-05-07T08:30:46;8.63;;;7.83;;
7162;SDS011;3623;47.098;15.446;2023-05-07T08:33:15;6.17;;;5.50;;
7162;SDS011;3623;47.098;15.446;2023-05-07T08:35:42;5.27;;;4.83;;
7162;SDS011;3623;47.098;15.446;2023-05-07T08:38:09;6.00;;;5.60;;
7162;SDS011;3623;47.098;15.446;2023-05-07T08:40:37;6.93;;;6.33;;
7162;SDS011;3623;47.098;15.446;2023-05-07T08:43:07;5.80;;;5.40;;
7162;SDS011;3623;47.098;15.446;2023-05-07T08:45:34;5.43;;;4.97;;
7162;SDS011;3623;47.098;15.446;2023-05-07T08:48:05;5.77;;;5.30;;
7162;SDS011;3623;47.098;15.446;2023-05-07T08:50:37;6.07;;;5.67;;
7162;SDS011;3623;47.098;15.446;2023-05-07T08:53:04;5.33;;;4.93;;
7162;SDS011;3623;47.098;15.446;2023-05-07T08:55:32;6.27;;;5.70;;
7162;SDS011;3623;47.098;15.446;2023-05-07T08:57:59;5.83;;;5.43;;
7162;SDS011;3623;47.098;15.446;2023-05-07T09:00:26;6.50;;;6.00;;
7162;SDS011;3623;47.098;15.446;2023-05-07T09:02:53;8.57;;;5.93;;
7162;SDS011;3623;47.098;15.446;2023-05-07T09:05:20;4.70;;;4.40;;
7162;SDS011;3623;47.098;15.446;2023-05-07T09:07:49;5.53;;;3.93;;
7162;SDS011;3623;47.098;15.446;2023-05-07T09:10:16;4.70;;;4.40;;
7162;SDS011;3623;47.098;15.446;2023-05-07T09:12:43;5.33;;;4.93;;
7162;SDS011;3623;47.098;15.446;2023-05-07T09:15:12;5.07;;;4.70;;
7162;SDS011;3623;47.098;15.446;2023-05-07T09:17:39;5.23;;;4.90;;
7162;SDS011;3623;47.098;15.446;2023-05-07T09:20:07;5.97;;;5.00;;
7162;SDS011;3623;47.098;15.446;2023-05-07T09:22:36;4.83;;;4.47;;
7162;SDS011;3623;47.098;15.446;2023-05-07T09:25:05;4.70;;;4.40;;
7162;SDS011;3623;47.098;15.446;2023-05-07T09:27:33;5.33;;;5.03;;
7162;SDS011;3623;47.098;15.446;2023-05-07T09:30:02;4.30;;;4.10;;
7162;SDS011;3623;47.098;15.446;2023-05-07T09:32:34;10.10;;;5.23;;
7162;SDS011;3623;47.098;15.446;2023-05-07T09:35:03;4.50;;;4.20;;
7162;SDS011;3623;47.098;15.446;2023-05-07T09:37:31;4.80;;;4.50;;
7162;SDS011;3623;47.098;15.446;2023-05-07T09:39:58;4.67;;;4.37;;
7162;SDS011;3623;47.098;15.446;2023-05-07T09:42:27;5.17;;;4.67;;
7162;SDS011;3623;47.098;15.446;2023-05-07T09:44:54;4.20;;;4.00;;
7162;SDS011;3623;47.098;15.446;2023-05-07T09:47:23;4.77;;;4.37;;
7162;SDS011;3623;47.098;15.446;2023-05-07T09:49:52;4.40;;;4.00;;
7162;SDS011;3623;47.098;15.446;2023-05-07T09:52:23;4.10;;;3.90;;
7162;SDS011;3623;47.098;15.446;2023-05-07T09:54:53;3.60;;;3.40;;
7162;SDS011;3623;47.098;15.446;2023-05-07T09:57:24;3.93;;;3.73;;
7162;SDS011;3623;47.098;15.446;2023-05-07T09:59:54;4.47;;;4.17;;
7162;SDS011;3623;47.098;15.446;2023-05-07T10:02:23;3.73;;;3.50;;
7162;SDS011;3623;47.098;15.446;2023-05-07T10:04:51;4.50;;;3.57;;
7162;SDS011;3623;47.098;15.446;2023-05-07T10:07:21;3.60;;;3.30;;
7162;SDS011;3623;47.098;15.446;2023-05-07T10:09:49;4.07;;;3.77;;
7162;SDS011;3623;47.098;15.446;2023-05-07T10:12:16;3.50;;;3.30;;
7162;SDS011;3623;47.098;15.446;2023-05-07T10:14:46;4.07;;;3.77;;
7162;SDS011;3623;47.098;15.446;2023-05-07T10:17:15;3.43;;;3.13;;
7162;SDS011;3623;47.098;15.446;2023-05-07T10:19:43;3.70;;;3.50;;
7162;SDS011;3623;47.098;15.446;2023-05-07T10:22:11;3.23;;;3.03;;
7162;SDS011;3623;47.098;15.446;2023-05-07T10:24:41;3.60;;;3.40;;
7162;SDS011;3623;47.098;15.446;2023-05-07T10:27:12;2.50;;;2.40;;
7162;SDS011;3623;47.098;15.446;2023-05-07T10:29:43;2.93;;;2.83;;
7162;SDS011;3623;47.098;15.446;2023-05-07T10:32:30;2.87;;;2.67;;
7162;SDS011;3623;47.098;15.446;2023-05-07T10:35:06;2.50;;;2.40;;
7162;SDS011;3623;47.098;15.446;2023-05-07T10:37:36;3.10;;;2.90;;
7162;SDS011;3623;47.098;15.446;2023-05-07T10:40:04;2.30;;;2.20;;
7162;SDS011;3623;47.098;15.446;2023-05-07T10:42:32;2.53;;;2.40;;
7162;SDS011;3623;47.098;15.446;2023-05-07T10:45:12;2.53;;;2.33;;
7162;SDS011;3623;47.098;15.446;2023-05-07T10:50:36;2.50;;;2.40;;
7162;SDS011;3623;47.098;15.446;2023-05-07T10:53:23;3.43;;;3.13;;
7162;SDS011;3623;47.098;15.446;2023-05-07T11:02:08;2.83;;;2.70;;
7162;SDS011;3623;47.098;15.446;2023-05-07T11:04:39;2.83;;;2.73;;
7162;SDS011;3623;47.098;15.446;2023-05-07T11:07:25;3.20;;;3.00;;
7162;SDS011;3623;47.098;15.446;2023-05-07T11:09:54;3.50;;;3.30;;
7162;SDS011;3623;47.098;15.446;2023-05-07T11:18:03;3.37;;;3.03;;
7162;SDS011;3623;47.098;15.446;2023-05-07T11:20:49;2.97;;;2.87;;
7162;SDS011;3623;47.098;15.446;2023-05-07T11:26:26;3.30;;;3.10;;
7162;SDS011;3623;47.098;15.446;2023-05-07T11:28:57;3.60;;;3.30;;
7162;SDS011;3623;47.098;15.446;2023-05-07T11:31:26;2.87;;;2.53;;
7162;SDS011;3623;47.098;15.446;2023-05-07T11:33:56;3.03;;;2.83;;
7162;SDS011;3623;47.098;15.446;2023-05-07T11:36:24;2.97;;;2.87;;
7162;SDS011;3623;47.098;15.446;2023-05-07T11:38:52;2.90;;;2.67;;
7162;SDS011;3623;47.098;15.446;2023-05-07T11:41:19;2.30;;;2.20;;
7162;SDS011;3623;47.098;15.446;2023-05-07T11:43:53;3.03;;;2.90;;
7162;SDS011;3623;47.098;15.446;2023-05-07T11:46:22;2.97;;;2.80;;
7162;SDS011;3623;47.098;15.446;2023-05-07T11:48:49;3.27;;;3.07;;
7162;SDS011;3623;47.098;15.446;2023-05-07T11:51:21;2.67;;;2.57;;
7162;SDS011;3623;47.098;15.446;2023-05-07T11:53:51;2.73;;;2.63;;
7162;SDS011;3623;47.098;15.446;2023-05-07T11:56:18;3.30;;;2.87;;
7162;SDS011;3623;47.098;15.446;2023-05-07T11:58:46;2.60;;;2.13;;
7162;SDS011;3623;47.098;15.446;2023-05-07T12:01:15;2.53;;;2.43;;
7162;SDS011;3623;47.098;15.446;2023-05-07T12:03:44;2.37;;;2.27;;
7162;SDS011;3623;47.098;15.446;2023-05-07T12:06:12;2.27;;;2.17;;
7162;SDS011;3623;47.098;15.446;2023-05-07T12:08:43;2.17;;;2.07;;
7162;SDS011;3623;47.098;15.446;2023-05-07T12:11:13;2.83;;;2.63;;
7162;SDS011;3623;47.098;15.446;2023-05-07T12:13:42;4.63;;;2.40;;
7162;SDS011;3623;47.098;15.446;2023-05-07T12:16:10;4.27;;;2.83;;
7162;SDS011;3623;47.098;15.446;2023-05-07T12:18:37;2.63;;;2.43;;
7162;SDS011;3623;47.098;15.446;2023-05-07T12:21:05;2.70;;;2.60;;
7162;SDS011;3623;47.098;15.446;2023-05-07T12:23:33;2.77;;;2.63;;
7162;SDS011;3623;47.098;15.446;2023-05-07T12:26:03;2.93;;;2.70;;
7162;SDS011;3623;47.098;15.446;2023-05-07T12:28:31;3.43;;;2.60;;
7162;SDS011;3623;47.098;15.446;2023-05-07T12:31:04;3.00;;;2.90;;
7162;SDS011;3623;47.098;15.446;2023-05-07T12:33:32;2.60;;;2.50;;
7162;SDS011;3623;47.098;15.446;2023-05-07T12:36:02;3.60;;;3.40;;
7162;SDS011;3623;47.098;15.446;2023-05-07T12:38:33;2.50;;;2.40;;
7162;SDS011;3623;47.098;15.446;2023-05-07T12:41:01;2.00;;;1.90;;
7162;SDS011;3623;47.098;15.446;2023-05-07T12:43:32;2.80;;;2.60;;
7162;SDS011;3623;47.098;15.446;2023-05-07T12:46:00;3.13;;;2.93;;
7162;SDS011;3623;47.098;15.446;2023-05-07T12:48:29;2.70;;;2.60;;
7162;SDS011;3623;47.098;15.446;2023-05-07T12:50:56;2.87;;;2.77;;
7162;SDS011;3623;47.098;15.446;2023-05-07T12:53:26;2.97;;;2.67;;
7162;SDS011;3623;47.098;15.446;2023-05-07T12:55:54;3.70;;;3.40;;
7162;SDS011;3623;47.098;15.446;2023-05-07T12:58:25;3.40;;;3.20;;
7162;SDS011;3623;47.098;15.446;2023-05-07T13:00:53;3.57;;;3.30;;
7162;SDS011;3623;47.098;15.446;2023-05-07T13:03:26;3.93;;;3.70;;
7162;SDS011;3623;47.098;15.446;2023-05-07T13:05:55;3.43;;;3.23;;
7162;SDS011;3623;47.098;15.446;2023-05-07T13:08:27;3.93;;;3.20;;
7162;SDS011;3623;47.098;15.446;2023-05-07T13:10:56;5.40;;;4.40;;
7162;SDS011;3623;47.098;15.446;2023-05-07T13:13:25;4.57;;;4.27;;
7162;SDS011;3623;47.098;15.446;2023-05-07T13:15:52;3.67;;;3.47;;
7162;SDS011;3623;47.098;15.446;2023-05-07T13:18:19;5.03;;;4.20;;
7162;SDS011;3623;47.098;15.446;2023-05-07T13:20:46;4.80;;;4.47;;
7162;SDS011;3623;47.098;15.446;2023-05-07T13:23:13;5.57;;;5.13;;
7162;SDS011;3623;47.098;15.446;2023-05-07T13:25:40;5.47;;;5.17;;
7162;SDS011;3623;47.098;15.446;2023-05-07T13:28:07;6.80;;;6.23;;
7162;SDS011;3623;47.098;15.446;2023-05-07T13:30:36;9.13;;;8.43;;
7162;SDS011;3623;47.098;15.446;2023-05-07T13:33:03;11.07;;;9.80;;
7162;SDS011;3623;47.098;15.446;2023-05-07T13:35:30;10.93;;;9.97;;
7162;SDS011;3623;47.098;15.446;2023-05-07T13:37:57;10.57;;;8.90;;
7162;SDS011;3623;47.098;15.446;2023-05-07T13:40:25;10.57;;;9.67;;
7162;SDS011;3623;47.098;15.446;2023-05-07T13:42:52;10.37;;;9.47;;
7162;SDS011;3623;47.098;15.446;2023-05-07T13:45:19;11.10;;;10.20;;
7162;SDS011;3623;47.098;15.446;2023-05-07T13:47:48;12.00;;;11.00;;
7162;SDS011;3623;47.098;15.446;2023-05-07T13:50:15;11.20;;;10.30;;
7162;SDS011;3623;47.098;15.446;2023-05-07T13:52:43;11.20;;;10.10;;
7162;SDS011;3623;47.098;15.446;2023-05-07T13:55:15;12.27;;;11.13;;
7162;SDS011;3623;47.098;15.446;2023-05-07T13:57:43;11.60;;;10.50;;
7162;SDS011;3623;47.098;15.446;2023-05-07T14:00:10;12.93;;;11.80;;
7162;SDS011;3623;47.098;15.446;2023-05-07T14:02:38;13.10;;;11.90;;
7162;SDS011;3623;47.098;15.446;2023-05-07T14:05:08;13.10;;;12.10;;
7162;SDS011;3623;47.098;15.446;2023-05-07T14:07:36;12.50;;;11.40;;
7162;SDS011;3623;47.098;15.446;2023-05-07T14:10:04;12.20;;;11.13;;
7162;SDS011;3623;47.098;15.446;2023-05-07T14:12:33;13.10;;;11.90;;
7162;SDS011;3623;47.098;15.446;2023-05-07T14:15:01;12.93;;;11.90;;
7162;SDS011;3623;47.098;15.446;2023-05-07T14:17:28;12.50;;;11.50;;
7162;SDS011;3623;47.098;15.446;2023-05-07T14:19:55;13.13;;;11.93;;
7162;SDS011;3623;47.098;15.446;2023-05-07T14:22:25;12.80;;;11.70;;
7162;SDS011;3623;47.098;15.446;2023-05-07T14:24:53;11.80;;;10.60;;
7162;SDS011;3623;47.098;15.446;2023-05-07T14:27:21;11.87;;;10.97;;
7162;SDS011;3623;47.098;15.446;2023-05-07T14:29:48;11.70;;;10.70;;
7162;SDS011;3623;47.098;15.446;2023-05-07T14:32:16;10.60;;;9.80;;
7162;SDS011;3623;47.098;15.446;2023-05-07T14:34:44;10.80;;;9.83;;
7162;SDS011;3623;47.098;15.446;2023-05-07T14:37:12;10.23;;;9.37;;
7162;SDS011;3623;47.098;15.446;2023-05-07T14:39:42;9.33;;;8.53;;
7162;SDS011;3623;47.098;15.446;2023-05-07T14:42:09;9.30;;;8.60;;
7162;SDS011;3623;47.098;15.446;2023-05-07T14:44:37;9.87;;;9.07;;
7162;SDS011;3623;47.098;15.446;2023-05-07T14:47:07;8.07;;;7.37;;
7162;SDS011;3623;47.098;15.446;2023-05-07T14:49:34;9.67;;;8.77;;
7162;SDS011;3623;47.098;15.446;2023-05-07T14:52:01;10.83;;;9.70;;
7162;SDS011;3623;47.098;15.446;2023-05-07T14:54:29;11.03;;;10.03;;
7162;SDS011;3623;47.098;15.446;2023-05-07T14:56:58;10.97;;;9.97;;
7162;SDS011;3623;47.098;15.446;2023-05-07T14:59:25;11.10;;;10.20;;
7162;SDS011;3623;47.098;15.446;2023-05-07T15:01:52;10.67;;;9.67;;
7162;SDS011;3623;47.098;15.446;2023-05-07T15:04:20;11.77;;;10.80;;
7162;SDS011;3623;47.098;15.446;2023-05-07T15:06:47;10.90;;;10.00;;
7162;SDS011;3623;47.098;15.446;2023-05-07T15:09:14;11.30;;;10.20;;
7162;SDS011;3623;47.098;15.446;2023-05-07T15:11:41;11.20;;;10.40;;
7162;SDS011;3623;47.098;15.446;2023-05-07T15:14:09;11.00;;;10.10;;
7162;SDS011;3623;47.098;15.446;2023-05-07T15:16:36;10.47;;;9.57;;
7162;SDS011;3623;47.098;15.446;2023-05-07T15:19:04;11.60;;;10.53;;